Time;durP1;ratioP1;P1;durP2;ratioP2;P2;SDS_P1;SDS_P2;PMS_P1;PMS_P2;Temp;Humidity;BMP_temperature;BMP_pressure;BME280_temperature;BME280_humidity;BME280_pressure;Samples;Min_cycle;Max_cycle;Signal;HPM_P1;HPM_P2
2022/07/28 00:01:52;;;;;;;28.73;4.55;;;;;;;17.45;100.00;97997.09;5009216;28;20045;-53
2022/07/28 00:04:18;;;;;;;19.90;3.95;;;;;;;17.52;100.00;97993.09;5008867;28;20018;-55
2022/07/28 00:06:43;;;;;;;26.50;4.60;;;;;;;17.76;100.00;97999.41;5006144;28;20104;-53
2022/07/28 00:09:08;;;;;;;18.80;3.92;;;;;;;17.46;100.00;97993.53;5008078;28;20032;-53
2022/07/28 00:11:34;;;;;;;32.75;5.25;;;;;;;17.31;100.00;97995.44;5005332;28;20124;-53
2022/07/28 00:13:59;;;;;;;26.40;4.68;;;;;;;17.32;100.00;97989.19;5007664;28;20083;-53
2022/07/28 00:16:24;;;;;;;24.23;4.45;;;;;;;17.40;100.00;97987.81;5007552;28;20148;-53
2022/07/28 00:18:50;;;;;;;27.80;4.72;;;;;;;17.23;100.00;97989.00;5004929;28;20030;-53
2022/07/28 00:21:15;;;;;;;29.50;4.68;;;;;;;17.38;100.00;97990.56;5005903;28;20040;-53
2022/07/28 00:23:40;;;;;;;29.73;5.10;;;;;;;17.65;100.00;97992.25;5005692;28;20034;-53
2022/07/28 00:26:08;;;;;;;24.42;4.57;;;;;;;17.26;100.00;98002.81;5004009;28;20679;-53
2022/07/28 00:28:33;;;;;;;29.60;4.93;;;;;;;16.96;100.00;97989.91;5005768;28;20479;-53
2022/07/28 00:30:59;;;;;;;26.92;5.28;;;;;;;17.37;100.00;97978.34;5004540;28;20041;-53
2022/07/28 00:33:24;;;;;;;26.60;4.53;;;;;;;17.23;100.00;97981.09;5007168;28;20080;-53
2022/07/28 00:35:49;;;;;;;28.95;5.25;;;;;;;17.25;100.00;97979.19;5006640;28;20403;-53
2022/07/28 00:38:15;;;;;;;23.45;4.68;;;;;;;17.12;100.00;97974.75;5006425;28;20053;-52
2022/07/28 00:43:25;;;;;;;28.88;4.93;;;;;;;16.94;100.00;97983.91;5007237;28;20646;-54
2022/07/28 00:45:50;;;;;;;27.35;4.88;;;;;;;17.01;100.00;97987.81;5005916;28;20037;-53
2022/07/28 00:48:15;;;;;;;25.92;4.53;;;;;;;17.28;100.00;97989.53;5005484;28;20714;-53
2022/07/28 00:50:42;;;;;;;25.05;4.57;;;;;;;16.95;100.00;97990.88;5007459;28;20037;-53
2022/07/28 00:53:07;;;;;;;25.67;4.70;;;;;;;16.99;100.00;97994.13;5012062;28;20087;-53
2022/07/28 00:55:33;;;;;;;30.77;5.00;;;;;;;16.94;100.00;97981.25;5006674;28;20037;-54
2022/07/28 00:58:00;;;;;;;29.95;5.10;;;;;;;16.82;100.00;97987.31;5007165;28;20503;-53
2022/07/28 01:00:25;;;;;;;31.00;5.13;;;;;;;16.92;100.00;97981.34;5006048;28;20030;-52
2022/07/28 01:02:51;;;;;;;22.70;4.45;;;;;;;16.74;100.00;97986.06;5005846;28;20107;-53
2022/07/28 01:05:17;;;;;;;26.42;4.88;;;;;;;17.06;100.00;97983.06;5007250;28;20061;-52
2022/07/28 01:08:02;;;;;;;31.08;4.93;;;;;;;16.70;100.00;97981.91;5006472;28;20073;-52
2022/07/28 01:10:48;;;;;;;34.25;5.63;;;;;;;16.95;100.00;97988.22;5005079;28;20568;-52
2022/07/28 01:13:33;;;;;;;30.48;5.22;;;;;;;16.95;100.00;97983.78;5006627;28;20018;-53
2022/07/28 01:16:04;;;;;;;27.65;4.72;;;;;;;17.11;100.00;97986.25;5006385;28;20041;-53
2022/07/28 01:18:47;;;;;;;32.45;5.32;;;;;;;16.97;100.00;97986.34;5006648;28;20034;-52
2022/07/28 01:21:14;;;;;;;;;;;;;;;17.11;100.00;97986.25;5006855;28;20029;-53
2022/07/28 01:23:58;;;;;;;28.17;4.85;;;;;;;17.09;100.00;97990.78;5006958;28;19917;-53
2022/07/28 01:26:50;;;;;;;25.20;4.82;;;;;;;17.01;100.00;97982.53;5009799;28;20112;-55
2022/07/28 01:29:34;;;;;;;31.17;5.18;;;;;;;16.72;100.00;97987.91;5010053;28;20633;-53
2022/07/28 01:32:12;;;;;;;25.13;4.55;;;;;;;16.83;100.00;97979.34;5009204;28;20454;-52
2022/07/28 01:34:48;;;;;;;49.65;6.60;;;;;;;16.97;100.00;97970.53;5008588;28;20732;-53
2022/07/28 01:37:22;;;;;;;34.40;5.60;;;;;;;16.70;100.00;97979.28;5008633;28;20522;-53
2022/07/28 01:39:52;;;;;;;31.23;5.20;;;;;;;16.87;100.00;97980.84;5011386;28;20025;-52
2022/07/28 01:42:22;;;;;;;26.60;4.70;;;;;;;16.87;100.00;97977.34;5007602;28;20045;-53
2022/07/28 01:44:50;;;;;;;30.20;5.20;;;;;;;16.59;100.00;97987.06;5010432;28;20026;-53
2022/07/28 01:47:18;;;;;;;36.72;5.95;;;;;;;16.87;100.00;97978.22;5009298;28;20062;-54
2022/07/28 01:49:45;;;;;;;28.60;4.85;;;;;;;16.76;100.00;97983.28;5009713;28;20547;-52
2022/07/28 01:52:12;;;;;;;26.15;4.88;;;;;;;16.83;100.00;97983.78;5009285;28;20038;-52
2022/07/28 01:54:41;;;;;;;31.50;5.20;;;;;;;16.50;100.00;97977.13;5011018;28;20797;-52
2022/07/28 01:57:09;;;;;;;37.03;5.95;;;;;;;16.61;100.00;97966.72;5008636;28;20565;-54
2022/07/28 01:59:37;;;;;;;30.65;5.15;;;;;;;16.63;100.00;97967.47;5012171;28;20851;-53
2022/07/28 02:02:04;;;;;;;32.83;5.50;;;;;;;16.63;100.00;97967.47;5007252;28;20549;-54
2022/07/28 02:04:34;;;;;;;24.80;4.70;;;;;;;16.57;100.00;97962.63;5008289;28;20792;-52
2022/07/28 02:07:02;;;;;;;31.52;5.47;;;;;;;16.49;100.00;97964.94;5008235;28;20053;-53
2022/07/28 02:09:29;;;;;;;31.92;5.13;;;;;;;16.33;100.00;97957.19;5009481;28;20429;-54
2022/07/28 02:11:56;;;;;;;27.77;4.97;;;;;;;16.53;100.00;97958.50;5009076;28;20029;-54
2022/07/28 02:14:23;;;;;;;29.02;4.93;;;;;;;16.19;100.00;97952.78;5010027;28;20805;-53
2022/07/28 02:16:57;;;;;;;26.63;4.57;;;;;;;16.34;100.00;97956.25;5009841;28;20515;-53
2022/07/28 02:19:24;;;;;;;30.50;5.20;;;;;;;16.35;100.00;97956.13;5010355;28;20030;-54
2022/07/28 02:21:51;;;;;;;22.98;4.70;;;;;;;16.32;100.00;97953.72;5008119;28;20046;-54
2022/07/28 02:24:20;;;;;;;32.88;5.68;;;;;;;16.50;100.00;97953.44;5010329;28;20030;-53
2022/07/28 02:26:49;;;;;;;23.65;4.97;;;;;;;16.27;100.00;97945.25;5007596;28;20044;-53
2022/07/28 02:29:17;;;;;;;28.88;5.43;;;;;;;16.55;100.00;97948.72;5007952;28;20133;-53
2022/07/28 02:31:50;;;;;;;30.58;5.38;;;;;;;16.35;100.00;97940.31;5007633;28;20954;-53
2022/07/28 02:34:21;;;;;;;28.23;5.10;;;;;;;16.28;100.00;97941.66;5009465;28;20072;-53
2022/07/28 02:36:52;;;;;;;31.75;5.30;;;;;;;16.14;100.00;97944.38;5007223;28;20037;-53
2022/07/28 02:39:24;;;;;;;27.15;5.05;;;;;;;16.03;100.00;97937.16;5009021;28;20870;-53
2022/07/28 02:41:57;;;;;;;25.23;5.20;;;;;;;16.19;100.00;97939.63;5007570;28;20510;-53
2022/07/28 02:44:27;;;;;;;28.90;5.18;;;;;;;16.14;100.00;97941.75;5008420;28;20108;-56
2022/07/28 02:46:56;;;;;;;22.58;4.63;;;;;;;16.20;100.00;97933.44;5008326;28;20036;-54
2022/07/28 02:49:30;;;;;;;26.73;5.07;;;;;;;16.10;100.00;97946.34;5007973;28;20037;-53
2022/07/28 02:51:59;;;;;;;29.75;5.28;;;;;;;16.15;100.00;97935.53;5008549;28;20770;-53
2022/07/28 02:54:26;;;;;;;31.23;5.28;;;;;;;15.98;100.00;97945.34;5010351;28;20030;-56
2022/07/28 02:56:52;;;;;;;30.58;5.43;;;;;;;16.08;100.00;97940.34;5009515;28;20038;-54
2022/07/28 02:59:20;;;;;;;29.70;5.18;;;;;;;15.98;100.00;97937.44;5009383;28;20498;-54
2022/07/28 03:01:47;;;;;;;31.55;5.75;;;;;;;15.92;100.00;97935.22;5006953;28;20132;-54
2022/07/28 03:04:14;;;;;;;31.02;5.63;;;;;;;15.96;100.00;97941.97;5008002;28;20475;-53
2022/07/28 03:06:40;;;;;;;30.15;5.43;;;;;;;15.93;100.00;97936.91;5008921;28;20042;-53
2022/07/28 03:09:09;;;;;;;25.38;5.03;;;;;;;16.07;100.00;97937.81;5006946;28;20025;-53
2022/07/28 03:11:34;;;;;;;30.20;5.30;;;;;;;15.97;100.00;97941.03;5008406;28;20423;-53
2022/07/28 03:14:00;;;;;;;29.60;5.28;;;;;;;15.83;100.00;97937.59;5009546;28;20018;-54
2022/07/28 03:16:25;;;;;;;29.83;5.57;;;;;;;15.84;100.00;97940.09;5007753;28;20095;-53
2022/07/28 03:18:50;;;;;;;26.10;5.50;;;;;;;16.07;100.00;97940.44;5007444;28;20064;-53
2022/07/28 03:21:16;;;;;;;31.25;5.38;;;;;;;16.14;100.00;97939.13;5008414;28;20069;-52
2022/07/28 03:23:44;;;;;;;33.83;5.55;;;;;;;15.90;100.00;97939.75;5009664;28;20022;-52
2022/07/28 03:26:37;;;;;;;31.33;5.60;;;;;;;15.94;100.00;97941.22;5007406;28;20889;-53
2022/07/28 03:29:03;;;;;;;34.25;5.63;;;;;;;15.92;100.00;97937.03;5000704;28;20040;-52
2022/07/28 03:31:31;;;;;;;27.35;4.60;;;;;;;16.09;100.00;97939.41;5008972;28;20045;-53
2022/07/28 03:33:56;;;;;;;36.65;5.45;;;;;;;15.75;100.00;97944.19;5017026;28;20040;-52
2022/07/28 03:36:35;;;;;;;25.77;4.95;;;;;;;15.98;100.00;97931.34;5006561;28;20042;-55
2022/07/28 03:39:03;;;;;;;34.70;5.90;;;;;;;15.91;100.00;97936.16;5008603;28;20030;-54
2022/07/28 03:41:31;;;;;;;32.42;5.68;;;;;;;15.69;100.00;97933.16;5007236;28;20033;-53
2022/07/28 03:43:57;;;;;;;30.30;5.30;;;;;;;16.11;100.00;97934.03;5006437;28;20034;-52
2022/07/28 03:46:24;;;;;;;30.27;5.35;;;;;;;16.03;100.00;97939.81;5007148;28;20040;-52
2022/07/28 03:48:49;;;;;;;27.27;5.22;;;;;;;16.11;100.00;97939.31;5008050;28;20026;-53
2022/07/28 03:51:15;;;;;;;38.13;5.78;;;;;;;15.74;100.00;97941.66;5006605;28;20056;-54
2022/07/28 03:53:41;;;;;;;29.77;5.05;;;;;;;15.77;100.00;97944.09;5009247;28;20392;-53
2022/07/28 03:56:07;;;;;;;27.02;5.47;;;;;;;15.66;100.00;97949.13;5008028;28;20072;-52
2022/07/28 03:58:32;;;;;;;28.33;5.28;;;;;;;15.91;100.00;97951.09;5007646;28;20087;-53
2022/07/28 04:00:58;;;;;;;28.40;5.15;;;;;;;15.83;100.00;97945.50;5006913;28;20156;-53
2022/07/28 04:03:24;;;;;;;31.63;5.93;;;;;;;15.95;100.00;97953.44;5008425;28;20065;-53
2022/07/28 04:05:49;;;;;;;26.02;5.15;;;;;;;15.71;100.00;97947.06;5006390;28;20121;-53
2022/07/28 04:08:15;;;;;;;27.40;5.63;;;;;;;15.86;100.00;97950.53;5007915;28;20036;-53
2022/07/28 04:10:40;;;;;;;30.75;5.20;;;;;;;15.90;100.00;97947.63;5006227;28;20029;-53
2022/07/28 04:13:06;;;;;;;24.10;5.05;;;;;;;15.94;100.00;97951.75;5005638;28;20045;-52
2022/07/28 04:15:32;;;;;;;33.05;5.80;;;;;;;15.79;100.00;97952.72;5008136;28;20131;-53
2022/07/28 04:17:58;;;;;;;28.38;5.20;;;;;;;15.78;100.00;97951.03;5007082;28;20032;-53
2022/07/28 04:20:25;;;;;;;32.80;5.82;;;;;;;15.98;100.00;97950.59;5007164;28;20065;-54
2022/07/28 04:22:52;;;;;;;35.90;5.97;;;;;;;16.00;100.00;97948.72;5007096;28;20033;-53
2022/07/28 04:25:24;;;;;;;28.15;4.97;;;;;;;15.93;100.00;97942.16;5006857;28;20022;-53
2022/07/28 04:27:50;;;;;;;37.03;5.78;;;;;;;16.11;100.00;97945.41;5005169;28;20021;-53
2022/07/28 04:30:18;;;;;;;35.70;6.03;;;;;;;15.88;100.00;97949.50;5006932;28;20033;-54
2022/07/28 04:32:48;;;;;;;33.30;5.55;;;;;;;16.05;100.00;97955.50;5009780;28;20025;-54
2022/07/28 04:35:15;;;;;;;27.27;5.05;;;;;;;16.09;100.00;97951.72;5007730;28;20080;-53
2022/07/28 04:37:41;;;;;;;31.50;5.15;;;;;;;16.10;100.00;97954.25;5008108;28;20621;-54
2022/07/28 04:40:09;;;;;;;35.00;5.85;;;;;;;16.38;100.00;97953.28;5006607;28;20712;-53
2022/07/28 04:42:36;;;;;;;31.38;5.43;;;;;;;16.55;100.00;97954.81;5006660;28;20042;-55
2022/07/28 04:45:03;;;;;;;39.20;5.97;;;;;;;16.99;100.00;97952.81;5006461;28;20518;-53
2022/07/28 04:47:28;;;;;;;25.90;4.72;;;;;;;17.66;100.00;97960.50;5007788;28;20100;-53
2022/07/28 04:49:54;;;;;;;32.17;5.65;;;;;;;17.18;100.00;97962.94;5005777;28;20026;-53
2022/07/28 04:52:20;;;;;;;30.63;5.47;;;;;;;17.69;100.00;97959.44;5007297;28;20040;-52
2022/07/28 04:54:46;;;;;;;27.55;4.80;;;;;;;17.73;100.00;97963.53;5006021;28;20037;-53
2022/07/28 04:57:12;;;;;;;30.92;5.53;;;;;;;17.58;100.00;97960.19;5004491;28;20049;-53
2022/07/28 04:59:37;;;;;;;28.23;4.95;;;;;;;17.66;100.00;97957.00;5006927;28;20112;-53
2022/07/28 05:02:03;;;;;;;28.90;5.05;;;;;;;17.48;100.00;97954.72;5005725;28;20110;-53
2022/07/28 05:04:29;;;;;;;29.92;5.10;;;;;;;17.60;100.00;97957.44;5008333;28;20030;-53
2022/07/28 05:06:54;;;;;;;31.95;5.28;;;;;;;17.75;100.00;97964.25;5008177;28;20033;-52
2022/07/28 05:09:20;;;;;;;22.83;4.43;;;;;;;18.00;100.00;97965.19;5005746;28;20029;-53
2022/07/28 05:11:45;;;;;;;22.55;4.70;;;;;;;17.71;100.00;97957.53;5006435;28;20575;-52
2022/07/28 05:14:11;;;;;;;26.45;5.13;;;;;;;17.49;100.00;97956.38;5007661;28;20595;-52
2022/07/28 05:16:36;;;;;;;26.67;4.78;;;;;;;17.81;100.00;97953.28;5008382;28;20034;-53
2022/07/28 05:19:02;;;;;;;28.23;4.88;;;;;;;18.55;100.00;97949.75;5010675;28;20536;-54
2022/07/28 05:21:27;;;;;;;31.95;5.18;;;;;;;18.14;100.00;97950.97;5006500;28;20037;-53
2022/07/28 05:23:53;;;;;;;22.05;4.05;;;;;;;18.23;100.00;97945.03;5006749;28;20029;-52
2022/07/28 05:26:18;;;;;;;27.60;4.85;;;;;;;18.01;100.00;97946.63;5004980;28;20034;-54
2022/07/28 05:28:43;;;;;;;24.63;4.55;;;;;;;18.50;100.00;97943.00;5007450;28;20040;-53
2022/07/28 05:31:09;;;;;;;26.67;4.57;;;;;;;18.76;100.00;97945.47;5005109;28;20447;-53
2022/07/28 05:33:35;;;;;;;25.45;4.60;;;;;;;17.91;100.00;97946.41;5007301;28;20026;-53
2022/07/28 05:36:02;;;;;;;22.88;4.53;;;;;;;18.22;100.00;97949.47;5007330;28;20041;-53
2022/07/28 05:38:30;;;;;;;34.67;5.45;;;;;;;18.23;100.00;97951.19;5005943;28;20065;-53
2022/07/28 05:40:56;;;;;;;30.00;5.20;;;;;;;18.52;100.00;97950.81;5003958;28;20037;-53
2022/07/28 05:43:22;;;;;;;29.58;5.25;;;;;;;19.32;100.00;97949.22;5007822;28;20021;-53
2022/07/28 05:45:48;;;;;;;26.45;4.53;;;;;;;19.53;100.00;97957.28;5005882;28;20087;-54
2022/07/28 05:48:20;;;;;;;26.00;4.55;;;;;;;20.76;100.00;97955.38;5006738;28;20109;-53
2022/07/28 05:50:47;;;;;;;22.98;4.60;;;;;;;20.49;100.00;97956.66;5004635;28;20038;-54
2022/07/28 05:53:12;;;;;;;34.35;5.10;;;;;;;20.53;96.87;97951.94;5007297;28;20032;-54
2022/07/28 05:55:38;;;;;;;23.55;4.57;;;;;;;22.68;74.79;97956.38;5005992;28;20034;-53
2022/07/28 05:58:03;;;;;;;23.15;4.32;;;;;;;24.67;60.80;97953.56;5017944;28;20033;-54
2022/07/28 06:00:32;;;;;;;29.05;5.03;;;;;;;23.43;66.62;97943.25;5003275;28;20034;-54
2022/07/28 06:03:00;;;;;;;23.75;4.82;;;;;;;21.81;69.80;97959.75;5006774;28;20033;-53
2022/07/28 06:05:26;;;;;;;26.33;4.85;;;;;;;22.44;71.48;97957.66;5005262;28;20041;-54
2022/07/28 06:07:52;;;;;;;36.85;5.78;;;;;;;22.82;70.98;97955.97;5002936;28;20968;-53
2022/07/28 06:10:20;;;;;;;24.65;4.93;;;;;;;23.18;66.40;97958.06;5006994;28;20841;-54
2022/07/28 06:12:56;;;;;;;19.42;4.13;;;;;;;24.30;61.10;97952.66;5010896;28;20391;-54
2022/07/28 06:15:26;;;;;;;34.10;5.90;;;;;;;23.44;64.24;97951.09;5007016;28;20030;-53
2022/07/28 06:17:54;;;;;;;23.00;4.20;;;;;;;25.64;57.40;97944.56;5007353;28;20580;-54
2022/07/28 06:20:21;;;;;;;24.88;4.75;;;;;;;26.79;50.98;97954.75;5008446;28;20059;-54
2022/07/28 06:22:52;;;;;;;25.30;4.63;;;;;;;28.45;45.49;97950.41;5009667;28;20029;-54
2022/07/28 06:25:20;;;;;;;21.10;4.28;;;;;;;29.29;43.06;97963.00;5008515;28;20038;-55
2022/07/28 06:27:47;;;;;;;18.38;4.25;;;;;;;29.11;42.51;97959.81;5007670;28;20381;-54
2022/07/28 06:30:13;;;;;;;29.98;6.00;;;;;;;27.52;43.75;97953.00;5007919;28;20590;-54
2022/07/28 06:32:38;;;;;;;21.23;4.60;;;;;;;26.39;46.74;97967.03;5010945;28;20026;-54
2022/07/28 06:35:04;;;;;;;22.48;5.00;;;;;;;24.32;51.34;97964.00;5008545;28;20244;-56
2022/07/28 06:37:30;;;;;;;16.60;4.15;;;;;;;22.87;56.94;97969.69;5010356;28;20021;-54
2022/07/28 06:39:55;;;;;;;20.08;4.72;;;;;;;24.46;53.43;97964.47;5007111;28;20034;-54
2022/07/28 06:42:21;;;;;;;23.13;4.80;;;;;;;25.41;50.48;97968.28;5006769;28;20052;-54
2022/07/28 06:44:46;;;;;;;20.58;4.43;;;;;;;25.22;49.22;97969.31;5007764;28;20554;-54
2022/07/28 06:47:11;;;;;;;24.35;5.32;;;;;;;27.72;45.28;97964.13;5009764;28;20040;-54
2022/07/28 06:49:36;;;;;;;17.75;4.18;;;;;;;28.64;42.92;97965.22;5007722;28;20060;-54
2022/07/28 06:52:02;;;;;;;21.90;4.70;;;;;;;30.06;39.57;97974.44;5008082;28;20069;-54
2022/07/28 06:54:27;;;;;;;18.67;4.40;;;;;;;29.86;39.26;97969.63;5009162;28;20121;-54
2022/07/28 06:56:53;;;;;;;18.63;4.47;;;;;;;29.70;40.13;97962.59;5008048;28;20057;-53
2022/07/28 06:59:18;;;;;;;25.73;4.80;;;;;;;26.46;43.07;97970.72;5009185;28;20029;-55
2022/07/28 07:01:44;;;;;;;14.55;3.67;;;;;;;28.22;41.77;97961.09;5007105;28;20053;-55
2022/07/28 07:04:09;;;;;;;19.88;4.07;;;;;;;27.60;41.72;97955.66;5009009;28;20045;-56
2022/07/28 07:06:35;;;;;;;21.00;4.63;;;;;;;27.26;42.95;97960.25;5008743;28;20038;-54
2022/07/28 07:09:00;;;;;;;18.90;4.35;;;;;;;28.17;41.63;97952.75;5008177;28;20473;-56
2022/07/28 07:11:26;;;;;;;18.25;4.40;;;;;;;29.96;38.15;97953.19;5006879;28;20038;-54
2022/07/28 07:13:51;;;;;;;18.40;4.03;;;;;;;30.79;37.23;97959.13;5007430;28;20057;-55
2022/07/28 07:16:17;;;;;;;15.98;4.07;;;;;;;31.78;35.39;97958.22;5006416;28;20033;-55
2022/07/28 07:18:43;;;;;;;18.20;3.72;;;;;;;32.17;33.72;97958.63;5008951;28;20038;-57
2022/07/28 07:21:08;;;;;;;16.50;4.15;;;;;;;30.55;36.39;97968.41;5008593;28;20041;-54
2022/07/28 07:23:34;;;;;;;15.38;4.22;;;;;;;31.82;34.23;97961.34;5009447;28;20805;-56
2022/07/28 07:26:00;;;;;;;15.02;3.85;;;;;;;30.42;36.66;97968.25;5008981;28;20067;-54
2022/07/28 07:28:25;;;;;;;15.88;3.80;;;;;;;33.50;32.66;97968.75;5009245;28;20117;-54
2022/07/28 07:30:51;;;;;;;15.52;4.05;;;;;;;31.56;35.04;97965.56;5005071;28;20037;-55
2022/07/28 07:33:16;;;;;;;15.85;4.25;;;;;;;31.59;35.49;97970.53;5007684;28;20077;-54
2022/07/28 07:35:42;;;;;;;15.30;4.00;;;;;;;34.03;31.11;97965.09;5007477;28;20045;-53
2022/07/28 07:38:08;;;;;;;14.95;4.72;;;;;;;29.82;35.27;97972.91;5006509;28;20069;-52
2022/07/28 07:40:33;;;;;;;13.90;3.67;;;;;;;31.04;35.15;97961.41;5006275;28;20038;-54
2022/07/28 07:42:59;;;;;;;14.82;3.92;;;;;;;30.22;35.81;97954.53;5007054;28;20057;-54
2022/07/28 07:45:24;;;;;;;17.10;4.15;;;;;;;29.35;37.85;97956.06;5007532;28;20181;-55
2022/07/28 07:47:50;;;;;;;14.25;3.97;;;;;;;31.76;34.24;97949.50;5008270;28;20824;-54
2022/07/28 07:50:15;;;;;;;16.67;4.30;;;;;;;31.99;33.68;97948.34;5006188;28;20040;-55
2022/07/28 07:52:40;;;;;;;13.85;3.97;;;;;;;31.29;34.83;97954.56;5009130;28;20038;-54
2022/07/28 07:55:06;;;;;;;16.73;4.65;;;;;;;34.93;30.04;97948.75;5005609;28;20036;-55
2022/07/28 07:57:32;;;;;;;12.65;3.70;;;;;;;35.24;29.86;97933.50;5005913;28;20570;-54
2022/07/28 07:59:57;;;;;;;16.50;4.43;;;;;;;33.67;31.82;97934.00;5009168;28;20029;-54
2022/07/28 08:02:23;;;;;;;14.00;4.20;;;;;;;33.33;31.26;97933.22;5008482;28;20041;-54
2022/07/28 08:04:48;;;;;;;17.27;3.88;;;;;;;31.92;32.67;97934.00;5009102;28;20144;-54
2022/07/28 08:07:14;;;;;;;12.75;4.10;;;;;;;32.66;32.55;97935.88;5007154;28;20034;-54
2022/07/28 08:09:39;;;;;;;13.82;4.07;;;;;;;32.76;32.09;97927.41;5008471;28;20026;-55
2022/07/28 08:12:05;;;;;;;13.32;3.35;;;;;;;34.00;30.91;97928.44;5006789;28;20034;-55
2022/07/28 08:14:30;;;;;;;13.57;4.10;;;;;;;33.61;30.44;97914.81;5007575;28;20120;-55
2022/07/28 08:16:58;;;;;;;15.65;4.05;;;;;;;33.30;31.29;97922.81;5005046;28;20040;-55
2022/07/28 08:19:23;;;;;;;13.38;3.95;;;;;;;35.77;28.63;97922.13;5006354;28;20040;-55
2022/07/28 08:21:48;;;;;;;13.57;3.97;;;;;;;33.53;30.46;97917.78;5007225;28;20030;-54
2022/07/28 08:24:14;;;;;;;13.80;4.32;;;;;;;36.49;27.51;97913.25;5004693;28;20403;-56
2022/07/28 08:26:39;;;;;;;11.20;3.30;;;;;;;34.24;28.90;97921.47;5006610;28;20037;-55
2022/07/28 08:29:05;;;;;;;13.02;3.72;;;;;;;35.42;28.74;97921.84;5006107;28;20403;-55
2022/07/28 08:31:30;;;;;;;12.65;3.60;;;;;;;36.16;27.54;97902.84;5005868;28;20038;-55
2022/07/28 08:33:57;;;;;;;14.88;3.90;;;;;;;34.09;30.06;97923.63;5005506;28;20028;-54
2022/07/28 08:36:22;;;;;;;13.73;3.72;;;;;;;36.84;27.16;97923.38;5006335;28;20041;-55
2022/07/28 08:38:48;;;;;;;14.68;3.92;;;;;;;36.78;27.13;97921.56;5004287;28;20083;-55
2022/07/28 08:41:42;;;;;;;11.13;3.95;;;;;;;37.12;27.00;97911.00;5005618;28;20404;-55
2022/07/28 08:44:12;;;;;;;12.98;3.60;;;;;;;34.18;29.36;97914.25;5005706;28;20026;-56
2022/07/28 08:46:38;;;;;;;14.30;3.88;;;;;;;35.82;27.71;97918.72;5007101;28;20546;-55
2022/07/28 08:49:08;;;;;;;20.75;4.63;;;;;;;35.13;27.90;97916.06;5005111;28;20034;-55
2022/07/28 08:51:34;;;;;;;14.80;4.60;;;;;;;34.09;28.96;97919.03;5005591;28;20411;-53
2022/07/28 08:54:02;;;;;;;24.08;5.00;;;;;;;35.36;27.78;97920.03;5006005;28;20096;-53
2022/07/28 08:56:27;;;;;;;18.17;4.15;;;;;;;35.30;27.91;97919.06;5005617;28;20129;-56
2022/07/28 08:58:54;;;;;;;19.92;4.32;;;;;;;36.42;26.60;97913.34;5003718;28;20026;-53
2022/07/28 09:01:21;;;;;;;16.58;4.10;;;;;;;35.46;27.64;97909.50;5003011;28;20072;-53
2022/07/28 09:03:48;;;;;;;18.67;4.85;;;;;;;34.72;28.44;97912.88;5006510;28;20030;-53
2022/07/28 09:06:13;;;;;;;19.15;4.53;;;;;;;35.68;27.46;97918.03;5013259;28;20828;-52
2022/07/28 09:08:39;;;;;;;15.13;4.18;;;;;;;35.64;27.67;97906.81;5005087;28;20746;-56
2022/07/28 09:11:06;;;;;;;17.92;4.30;;;;;;;36.59;26.52;97902.63;5003518;28;20096;-52
2022/07/28 09:13:33;;;;;;;19.30;4.38;;;;;;;36.17;26.74;97905.28;5007056;28;20919;-53
2022/07/28 09:15:59;;;;;;;20.90;4.32;;;;;;;35.09;28.14;97910.25;5006630;28;20131;-53
2022/07/28 09:18:24;;;;;;;25.88;5.15;;;;;;;35.52;27.13;97911.31;5004834;28;20080;-55
2022/07/28 09:20:50;;;;;;;21.00;4.63;;;;;;;34.99;27.77;97899.09;5004108;28;20044;-54
2022/07/28 09:23:15;;;;;;;17.65;4.50;;;;;;;33.89;29.22;97897.47;5005038;28;20099;-53
2022/07/28 09:25:41;;;;;;;21.52;4.78;;;;;;;33.95;29.34;97903.91;5004807;28;20033;-53
2022/07/28 09:28:17;;;;;;;19.15;4.63;;;;;;;33.77;28.54;97899.22;5005707;28;20026;-53
2022/07/28 09:30:45;;;;;;;17.30;4.35;;;;;;;35.00;27.94;97900.75;5006268;28;20065;-53
2022/07/28 09:33:21;;;;;;;23.73;4.95;;;;;;;34.92;27.71;97892.91;5005291;28;20507;-53
2022/07/28 09:35:46;;;;;;;22.95;4.85;;;;;;;35.10;28.01;97895.63;5004961;28;20531;-54
2022/07/28 09:38:12;;;;;;;17.25;3.97;;;;;;;35.17;27.64;97892.06;5006827;28;20037;-52
2022/07/28 09:40:38;;;;;;;21.00;4.35;;;;;;;35.21;27.20;97890.59;5004433;28;20048;-55
2022/07/28 09:43:04;;;;;;;17.58;4.15;;;;;;;34.77;27.54;97890.53;5004079;28;20500;-53
2022/07/28 09:45:29;;;;;;;24.33;5.00;;;;;;;34.60;27.61;97889.41;5005453;28;20041;-53
2022/07/28 09:48:11;;;;;;;20.73;4.32;;;;;;;33.21;28.83;97896.03;5012260;28;20365;-53
2022/07/28 09:50:40;;;;;;;22.65;4.90;;;;;;;34.02;28.43;97891.16;5008447;28;20034;-53
2022/07/28 09:53:21;;;;;;;19.40;4.28;;;;;;;34.77;27.87;97887.00;5013931;28;20038;-53
2022/07/28 09:55:58;;;;;;;21.90;4.55;;;;;;;35.96;26.08;97886.81;5008521;28;20631;-53
2022/07/28 09:58:25;;;;;;;20.52;4.40;;;;;;;35.30;27.20;97889.22;5008228;28;20163;-54
2022/07/28 10:01:03;;;;;;;20.73;4.38;;;;;;;34.83;27.09;97883.38;5015837;28;20040;-53
2022/07/28 10:03:29;;;;;;;18.77;4.65;;;;;;;35.22;26.69;97897.63;5004130;28;20030;-53
2022/07/28 10:05:57;;;;;;;13.48;3.83;;;;;;;35.25;26.88;97889.06;5009736;28;20107;-53
2022/07/28 10:08:43;;;;;;;15.65;3.85;;;;;;;35.08;26.66;97886.91;5010697;28;20033;-54
2022/07/28 10:11:11;;;;;;;24.08;4.88;;;;;;;33.64;28.01;97888.41;5009561;28;20053;-53
2022/07/28 10:13:52;;;;;;;17.60;4.00;;;;;;;35.49;26.52;97874.63;5011036;28;20172;-53
2022/07/28 10:16:19;;;;;;;17.35;3.85;;;;;;;36.47;25.38;97861.03;5010946;28;20026;-53
2022/07/28 10:18:46;;;;;;;20.95;4.43;;;;;;;34.66;27.09;97873.06;5010429;28;20524;-53
2022/07/28 10:21:13;;;;;;;18.55;4.10;;;;;;;33.95;27.48;97861.47;5010041;28;20034;-54
2022/07/28 10:23:43;;;;;;;17.40;4.00;;;;;;;35.93;26.25;97860.13;5010892;28;20026;-53
2022/07/28 10:26:10;;;;;;;21.65;4.95;;;;;;;33.58;28.49;97861.19;5008935;28;20033;-53
2022/07/28 10:28:43;;;;;;;25.50;4.32;;;;;;;35.51;26.59;97864.38;5011386;28;20495;-53
2022/07/28 10:31:10;;;;;;;18.30;4.20;;;;;;;33.89;27.70;97859.59;5012666;28;20060;-55
2022/07/28 10:33:42;;;;;;;18.80;3.60;;;;;;;36.07;25.96;97850.75;5012115;28;20037;-53
2022/07/28 10:36:09;;;;;;;16.45;3.78;;;;;;;34.51;26.83;97848.22;5010625;28;20179;-53
2022/07/28 10:38:35;;;;;;;24.35;4.35;;;;;;;32.84;28.69;97838.88;5010961;28;20678;-55
2022/07/28 10:41:05;;;;;;;20.25;4.28;;;;;;;33.60;27.51;97842.03;5008546;28;20045;-52
2022/07/28 10:43:31;;;;;;;17.60;3.90;;;;;;;34.48;27.21;97848.66;5010234;28;20041;-53
2022/07/28 10:46:02;;;;;;;28.25;4.80;;;;;;;33.71;27.83;97838.69;5008599;28;20039;-53
2022/07/28 10:48:28;;;;;;;23.58;4.30;;;;;;;34.76;27.21;97840.13;5012156;28;20466;-53
2022/07/28 10:50:54;;;;;;;19.25;3.80;;;;;;;32.55;28.35;97839.28;5009921;28;20586;-53
2022/07/28 10:53:35;;;;;;;21.65;4.20;;;;;;;33.26;27.84;97835.09;5011608;28;20115;-53
2022/07/28 10:56:13;;;;;;;22.38;4.45;;;;;;;33.51;27.92;97840.59;5011039;28;20816;-53
2022/07/28 10:59:12;;;;;;;19.92;4.22;;;;;;;33.25;28.14;97830.72;5009827;28;20029;-53
2022/07/28 11:01:40;;;;;;;20.33;4.30;;;;;;;33.50;27.43;97831.69;5008593;28;20176;-56
2022/07/28 11:04:06;;;;;;;16.83;3.53;;;;;;;33.45;27.31;97833.38;5009246;28;20033;-54
2022/07/28 11:06:38;;;;;;;20.25;4.47;;;;;;;35.61;26.15;97825.88;5009152;28;20757;-54
2022/07/28 11:09:16;;;;;;;21.45;4.10;;;;;;;33.43;27.71;97830.88;5011183;28;20061;-53
2022/07/28 11:11:49;;;;;;;20.70;4.05;;;;;;;33.54;27.98;97830.19;5008693;28;20490;-53
2022/07/28 11:14:24;;;;;;;18.42;3.83;;;;;;;33.74;27.51;97823.91;5010499;28;20017;-55
2022/07/28 11:17:10;;;;;;;16.58;3.65;;;;;;;35.21;26.44;97820.09;5008041;28;20113;-54
2022/07/28 11:20:01;;;;;;;21.73;4.72;;;;;;;34.12;27.13;97817.66;5007959;28;20156;-55
2022/07/28 11:22:27;;;;;;;21.98;4.43;;;;;;;33.46;28.40;97818.81;5003679;28;20065;-53
2022/07/28 11:24:56;;;;;;;19.05;4.03;;;;;;;34.50;27.18;97811.34;5009104;28;20049;-55
2022/07/28 11:27:39;;;;;;;19.73;4.28;;;;;;;32.94;29.47;97808.75;5008132;28;20582;-53
2022/07/28 11:30:31;;;;;;;24.15;5.10;;;;;;;32.82;29.08;97805.84;5008649;28;20407;-54